createdAt,value
2022-11-29T00:00:50.152Z,-0.53
2022-11-29T00:01:54.448Z,-0.53
2022-11-29T00:02:56.432Z,-0.53
2022-11-29T00:03:58.727Z,-0.55
2022-11-29T00:05:00.507Z,-0.55
2022-11-29T00:06:07.907Z,-0.55
2022-11-29T00:07:09.676Z,-0.55
2022-11-29T00:08:11.734Z,-0.54
2022-11-29T00:09:13.921Z,-0.54
2022-11-29T00:10:15.805Z,-0.54
2022-11-29T00:11:38.648Z,-0.54
2022-11-29T00:12:40.445Z,-0.54
2022-11-29T00:13:42.181Z,-0.54
2022-11-29T00:14:44.282Z,-0.55
2022-11-29T00:15:46.421Z,-0.55
2022-11-29T00:16:53.788Z,-0.55
2022-11-29T00:17:55.663Z,-0.53
2022-11-29T00:18:57.495Z,-0.51
2022-11-29T00:19:59.353Z,-0.50
2022-11-29T00:21:05.644Z,-0.50
2022-11-29T00:22:07.392Z,-0.50
2022-11-29T00:23:09.140Z,-0.50
2022-11-29T00:24:10.886Z,-0.50
2022-11-29T00:25:13.158Z,-0.49
2022-11-29T00:26:14.928Z,-0.50
2022-11-29T00:27:16.761Z,-0.52
2022-11-29T00:28:18.529Z,-0.53
2022-11-29T00:29:20.425Z,-0.53
2022-11-29T00:30:22.572Z,-0.54
2022-11-29T00:31:30.617Z,-0.54
2022-11-29T00:32:32.380Z,-0.54
2022-11-29T00:33:34.177Z,-0.52
2022-11-29T00:34:37.209Z,-0.51
2022-11-29T00:35:39.030Z,-0.50
2022-11-29T00:36:41.228Z,-0.49
2022-11-29T00:37:42.969Z,-0.49
2022-11-29T00:38:45.436Z,-0.48
2022-11-29T00:39:47.306Z,-0.46
2022-11-29T00:40:52.691Z,-0.46
2022-11-29T00:41:54.812Z,-0.46
2022-11-29T00:42:56.583Z,-0.45
2022-11-29T00:43:58.683Z,-0.45
2022-11-29T00:45:00.433Z,-0.47
2022-11-29T00:46:04.113Z,-0.50
2022-11-29T00:47:05.915Z,-0.50
2022-11-29T00:48:07.663Z,-0.50
2022-11-29T00:49:09.474Z,-0.50
2022-11-29T00:50:11.606Z,-0.50
2022-11-29T00:51:13.724Z,-0.51
2022-11-29T00:52:15.569Z,-0.50
2022-11-29T00:53:17.500Z,-0.50
2022-11-29T00:54:20.322Z,-0.48
2022-11-29T00:55:22.067Z,-0.47
2022-11-29T00:56:24.001Z,-0.45
2022-11-29T00:57:25.747Z,-0.45
2022-11-29T00:58:28.340Z,-0.46
2022-11-29T00:59:30.460Z,-0.45
2022-11-29T01:00:33.359Z,-0.44
2022-11-29T01:01:35.562Z,-0.45
2022-11-29T01:02:37.623Z,-0.46
2022-11-29T01:03:39.906Z,-0.48
2022-11-29T01:04:41.877Z,-0.47
2022-11-29T01:05:44.641Z,-0.47
2022-11-29T01:06:46.702Z,-0.47
2022-11-29T01:07:48.520Z,-0.48
2022-11-29T01:08:50.736Z,-0.49
2022-11-29T01:09:52.482Z,-0.47
2022-11-29T01:11:14.418Z,-0.47
2022-11-29T01:12:16.325Z,-0.46
2022-11-29T01:13:18.107Z,-0.45
2022-11-29T01:14:20.347Z,-0.45
2022-11-29T01:15:22.723Z,-0.46
2022-11-29T01:16:25.190Z,-0.47
2022-11-29T01:17:26.985Z,-0.47
2022-11-29T01:18:30.523Z,-0.47
2022-11-29T01:19:32.300Z,-0.48
2022-11-29T01:20:34.052Z,-0.50
2022-11-29T01:21:36.231Z,-0.53
2022-11-29T01:22:39.532Z,-0.53
2022-11-29T01:23:42.556Z,-0.52
2022-11-29T01:24:44.661Z,-0.53
2022-11-29T01:25:46.774Z,-0.53
2022-11-29T01:26:48.667Z,-0.53
2022-11-29T01:27:50.448Z,-0.54
2022-11-29T01:28:55.109Z,-0.55
2022-11-29T01:29:56.957Z,-0.55
2022-11-29T01:30:58.787Z,-0.53
2022-11-29T01:32:00.608Z,-0.53
2022-11-29T01:33:02.335Z,-0.52
2022-11-29T01:34:06.072Z,-0.52
2022-11-29T01:35:08.511Z,-0.53
2022-11-29T01:36:12.880Z,-0.54
2022-11-29T01:37:14.745Z,-0.54
2022-11-29T01:38:18.249Z,-0.55
2022-11-29T01:39:20.063Z,-0.54
2022-11-29T01:40:21.875Z,-0.54
2022-11-29T01:41:26.593Z,-0.55
2022-11-29T01:42:28.400Z,-0.55
2022-11-29T01:43:31.541Z,-0.55
2022-11-29T01:44:33.236Z,-0.54
2022-11-29T01:45:39.312Z,-0.53
2022-11-29T01:46:43.987Z,-0.53
2022-11-29T01:47:48.838Z,-0.51
2022-11-29T01:48:57.692Z,-0.49
2022-11-29T01:50:00.627Z,-0.50
2022-11-29T01:51:03.144Z,-0.51
2022-11-29T01:52:09.945Z,-0.53
2022-11-29T01:53:15.565Z,-0.52
2022-11-29T01:54:18.800Z,-0.52
2022-11-29T01:55:21.782Z,-0.52
2022-11-29T01:56:25.263Z,-0.53
2022-11-29T01:57:28.157Z,-0.54
2022-11-29T01:58:30.331Z,-0.54
2022-11-29T01:59:33.468Z,-0.55
2022-11-29T02:00:36.728Z,-0.56
2022-11-29T02:01:39.487Z,-0.57
2022-11-29T02:02:55.729Z,-0.58
2022-11-29T02:04:00.023Z,-0.58
2022-11-29T02:05:03.911Z,-0.58
2022-11-29T02:06:07.973Z,-0.59
2022-11-29T02:07:10.277Z,-0.60
2022-11-29T02:08:16.519Z,-0.61
2022-11-29T02:09:21.854Z,-0.61
2022-11-29T02:10:41.019Z,-0.60
2022-11-29T02:12:04.940Z,-0.59
2022-11-29T02:13:43.033Z,-0.60
2022-11-29T02:15:08.876Z,-0.62
2022-11-29T02:16:29.415Z,-0.62
2022-11-29T02:17:37.077Z,-0.62
2022-11-29T02:18:50.214Z,-0.62
2022-11-29T02:20:16.264Z,-0.61
2022-11-29T02:21:47.389Z,-0.59
2022-11-29T02:23:22.159Z,-0.57
2022-11-29T02:24:57.897Z,-0.58
2022-11-29T02:26:11.496Z,-0.59
2022-11-29T02:27:57.408Z,-0.59
2022-11-29T02:29:02.319Z,-0.59
2022-11-29T02:30:38.272Z,-0.59
2022-11-29T02:31:57.040Z,-0.59
2022-11-29T02:33:10.299Z,-0.61
2022-11-29T02:34:36.762Z,-0.63
2022-11-29T02:36:17.192Z,-0.65
2022-11-29T02:37:49.528Z,-0.68
2022-11-29T02:39:12.365Z,-0.68
2022-11-29T02:40:41.432Z,-0.69
2022-11-29T02:42:15.959Z,-0.71
2022-11-29T02:43:49.749Z,-0.71
2022-11-29T02:45:14.245Z,-0.70
2022-11-29T02:46:44.444Z,-0.71
2022-11-29T02:47:55.986Z,-0.71
2022-11-29T02:49:13.551Z,-0.73
2022-11-29T02:50:41.416Z,-0.73
2022-11-29T02:51:57.000Z,-0.73
2022-11-29T02:53:38.353Z,-0.73
2022-11-29T02:54:54.857Z,-0.72
2022-11-29T02:56:13.074Z,-0.71
2022-11-29T02:57:42.854Z,-0.69
2022-11-29T02:59:03.585Z,-0.68
2022-11-29T03:00:18.817Z,-0.66
2022-11-29T03:01:51.050Z,-0.65
2022-11-29T03:03:40.964Z,-0.68
2022-11-29T03:05:15.879Z,-0.72
2022-11-29T03:06:36.075Z,-0.76
2022-11-29T03:08:06.219Z,-0.77
2022-11-29T03:09:19.174Z,-0.80
2022-11-29T03:10:29.868Z,-0.83
2022-11-29T03:11:37.394Z,-0.84
2022-11-29T03:12:49.552Z,-0.86
2022-11-29T03:14:15.489Z,-0.87
2022-11-29T03:15:22.906Z,-0.88
2022-11-29T03:16:50.810Z,-0.87
2022-11-29T03:18:31.742Z,-0.86
2022-11-29T03:19:50.589Z,-0.85
2022-11-29T03:20:54.940Z,-0.83
2022-11-29T03:22:13.737Z,-0.82
2022-11-29T03:23:28.448Z,-0.82
2022-11-29T03:24:42.737Z,-0.83
2022-11-29T03:26:07.615Z,-0.83
2022-11-29T03:27:15.621Z,-0.82
2022-11-29T03:28:31.583Z,-0.81
2022-11-29T03:29:43.130Z,-0.82
2022-11-29T03:31:01.395Z,-0.82
2022-11-29T03:32:12.633Z,-0.81
2022-11-29T03:33:32.069Z,-0.82
2022-11-29T03:34:56.974Z,-0.82
2022-11-29T03:36:13.035Z,-0.82
2022-11-29T03:37:26.118Z,-0.82
2022-11-29T03:38:42.168Z,-0.82
2022-11-29T03:39:43.871Z,-0.83
2022-11-29T03:40:56.181Z,-0.85
2022-11-29T03:42:06.348Z,-0.87
2022-11-29T03:43:19.818Z,-0.86
2022-11-29T03:44:27.264Z,-0.86
2022-11-29T03:46:01.938Z,-0.86
2022-11-29T03:47:15.401Z,-0.86
2022-11-29T03:48:34.639Z,-0.88
2022-11-29T03:49:56.181Z,-0.88
2022-11-29T03:51:03.195Z,-0.86
2022-11-29T03:52:33.141Z,-0.86
2022-11-29T03:54:00.022Z,-0.85
2022-11-29T03:55:26.624Z,-0.84
2022-11-29T03:56:37.439Z,-0.84
2022-11-29T03:57:51.388Z,-0.84
2022-11-29T03:59:21.868Z,-0.84
2022-11-29T04:00:24.101Z,-0.83
2022-11-29T04:01:42.840Z,-0.82
2022-11-29T04:03:03.863Z,-0.81
2022-11-29T04:04:43.615Z,-0.82
2022-11-29T04:05:55.017Z,-0.85
2022-11-29T04:07:33.918Z,-0.84
2022-11-29T04:09:17.390Z,-0.84
2022-11-29T04:10:22.515Z,-0.85
2022-11-29T04:11:30.603Z,-0.84
2022-11-29T04:12:49.294Z,-0.82
2022-11-29T04:14:46.747Z,-0.81
2022-11-29T04:16:19.991Z,-0.77
2022-11-29T04:17:50.026Z,-0.77
2022-11-29T04:19:45.029Z,-0.77
2022-11-29T04:21:08.012Z,-0.77
2022-11-29T04:22:18.994Z,-0.78
2022-11-29T04:23:46.839Z,-0.75
2022-11-29T04:25:20.340Z,-0.74
2022-11-29T04:26:38.863Z,-0.75
2022-11-29T04:28:40.409Z,-0.77
2022-11-29T04:29:51.445Z,-0.78
2022-11-29T04:31:22.814Z,-0.77
2022-11-29T04:32:58.940Z,-0.78
2022-11-29T04:34:22.646Z,-0.76
2022-11-29T04:35:33.349Z,-0.76
2022-11-29T04:36:43.914Z,-0.78
2022-11-29T04:38:04.133Z,-0.80
2022-11-29T04:39:44.164Z,-0.81
2022-11-29T04:41:04.510Z,-0.81
2022-11-29T04:42:41.347Z,-0.83
2022-11-29T04:44:08.255Z,-0.85
2022-11-29T04:45:34.370Z,-0.86
2022-11-29T04:46:58.167Z,-0.86
2022-11-29T04:48:18.959Z,-0.87
2022-11-29T04:49:32.535Z,-0.87
2022-11-29T04:50:54.570Z,-0.88
2022-11-29T04:52:21.049Z,-0.89
2022-11-29T04:53:36.307Z,-0.90
2022-11-29T04:55:05.162Z,-0.92
2022-11-29T04:56:13.022Z,-0.95
2022-11-29T04:57:42.188Z,-0.93
2022-11-29T04:58:56.928Z,-0.92
2022-11-29T05:00:10.253Z,-0.91
2022-11-29T05:01:39.909Z,-0.88
2022-11-29T05:02:58.295Z,-0.85
2022-11-29T05:04:25.567Z,-0.85
2022-11-29T05:05:44.582Z,-0.85
2022-11-29T05:07:05.688Z,-0.88
2022-11-29T05:08:19.623Z,-0.90
2022-11-29T05:09:46.527Z,-0.89
2022-11-29T05:11:14.364Z,-0.89
2022-11-29T05:12:27.930Z,-0.90
2022-11-29T05:13:47.965Z,-0.92
2022-11-29T05:15:21.475Z,-0.93
2022-11-29T05:16:42.798Z,-0.94
2022-11-29T05:18:04.612Z,-0.94
2022-11-29T05:19:31.091Z,-0.95
2022-11-29T05:20:48.434Z,-0.94
2022-11-29T05:22:22.660Z,-0.94
2022-11-29T05:23:33.215Z,-0.96
2022-11-29T05:24:44.080Z,-0.97
2022-11-29T05:26:00.261Z,-0.98
2022-11-29T05:27:17.206Z,-0.97
2022-11-29T05:28:36.660Z,-0.96
2022-11-29T05:29:44.919Z,-0.96
2022-11-29T05:31:18.894Z,-0.95
2022-11-29T05:32:30.842Z,-0.95
2022-11-29T05:34:08.530Z,-0.92
2022-11-29T05:35:29.300Z,-0.93
2022-11-29T05:36:58.841Z,-0.94
2022-11-29T05:38:38.888Z,-0.92
2022-11-29T05:40:07.180Z,-0.90
2022-11-29T05:41:32.986Z,-0.89
2022-11-29T05:42:55.394Z,-0.90
2022-11-29T05:44:13.926Z,-0.91
2022-11-29T05:45:32.164Z,-0.91
2022-11-29T05:46:56.111Z,-0.91
2022-11-29T05:48:22.903Z,-0.92
2022-11-29T05:49:49.049Z,-0.90
2022-11-29T05:51:13.929Z,-0.88
2022-11-29T05:52:22.809Z,-0.86
2022-11-29T05:54:12.729Z,-0.87
2022-11-29T05:55:14.415Z,-0.87
2022-11-29T05:56:45.943Z,-0.89
2022-11-29T05:58:00.842Z,-0.91
2022-11-29T05:59:13.788Z,-0.94
2022-11-29T06:00:19.452Z,-0.98
2022-11-29T06:01:31.667Z,-1.00
2022-11-29T06:02:59.137Z,-1.00
2022-11-29T06:04:19.717Z,-1.02
2022-11-29T06:05:39.666Z,-1.04
2022-11-29T06:07:26.399Z,-1.06
2022-11-29T06:09:20.068Z,-1.07
2022-11-29T06:10:28.515Z,-1.08
2022-11-29T06:11:57.710Z,-1.09
2022-11-29T06:13:09.403Z,-1.10
2022-11-29T06:14:29.200Z,-1.12
2022-11-29T06:15:56.759Z,-1.11
2022-11-29T06:17:39.203Z,-1.10
2022-11-29T06:19:02.585Z,-1.11
2022-11-29T06:21:01.710Z,-1.11
2022-11-29T06:22:27.375Z,-1.11
2022-11-29T06:24:20.443Z,-1.10
2022-11-29T06:25:47.423Z,-1.08
2022-11-29T06:27:17.116Z,-1.07
2022-11-29T06:28:41.618Z,-1.06
2022-11-29T06:30:00.700Z,-1.05
2022-11-29T06:31:23.767Z,-1.05
2022-11-29T06:32:50.545Z,-1.05
2022-11-29T06:34:09.350Z,-1.04
2022-11-29T06:35:35.551Z,-1.04
2022-11-29T06:37:07.523Z,-1.04
2022-11-29T06:38:19.939Z,-1.04
2022-11-29T06:39:22.020Z,-1.05
2022-11-29T06:40:24.649Z,-1.06
2022-11-29T06:41:26.837Z,-1.07
2022-11-29T06:42:28.656Z,-1.07
2022-11-29T06:43:31.063Z,-1.08
2022-11-29T06:44:33.499Z,-1.09
2022-11-29T06:45:35.711Z,-1.09
2022-11-29T06:46:47.885Z,-1.10
2022-11-29T06:47:59.521Z,-1.10
2022-11-29T06:49:19.625Z,-1.11
2022-11-29T06:50:40.975Z,-1.09
2022-11-29T06:52:04.283Z,-1.08
2022-11-29T06:53:20.952Z,-1.07
2022-11-29T06:54:38.644Z,-1.08
2022-11-29T06:56:08.260Z,-1.09
2022-11-29T06:57:24.877Z,-1.09
2022-11-29T06:58:42.151Z,-1.10
2022-11-29T07:00:09.359Z,-1.08
2022-11-29T07:01:43.612Z,-1.08
2022-11-29T07:03:06.916Z,-1.06
2022-11-29T07:04:23.956Z,-1.03
2022-11-29T07:05:34.363Z,-1.02
2022-11-29T07:06:36.498Z,-1.01
2022-11-29T07:07:40.827Z,-1.01
2022-11-29T07:08:43.738Z,-1.00
2022-11-29T07:09:49.511Z,-1.01
2022-11-29T07:10:54.967Z,-1.01
2022-11-29T07:11:57.221Z,-1.00
2022-11-29T07:12:59.505Z,-0.99
2022-11-29T07:14:01.749Z,-0.98
2022-11-29T07:15:04.540Z,-0.96
2022-11-29T07:16:39.328Z,-0.95
2022-11-29T07:18:05.565Z,-0.94
2022-11-29T07:19:28.453Z,-0.93
2022-11-29T07:20:48.338Z,-0.92
2022-11-29T07:22:25.634Z,-0.92
2022-11-29T07:23:45.301Z,-0.94
2022-11-29T07:25:08.236Z,-0.95
2022-11-29T07:26:15.028Z,-0.95
2022-11-29T07:27:25.583Z,-0.95
2022-11-29T07:28:39.853Z,-0.96
2022-11-29T07:29:50.446Z,-0.95
2022-11-29T07:31:09.780Z,-0.94
2022-11-29T07:32:38.213Z,-0.92
2022-11-29T07:34:03.725Z,-0.89
2022-11-29T07:35:23.792Z,-0.90
2022-11-29T07:36:35.181Z,-0.88
2022-11-29T07:37:41.282Z,-0.85
2022-11-29T07:39:01.850Z,-0.83
2022-11-29T07:40:03.705Z,-0.79
2022-11-29T07:41:17.603Z,-0.76
2022-11-29T07:42:42.002Z,-0.73
2022-11-29T07:44:05.655Z,-0.70
2022-11-29T07:45:23.928Z,-0.69
2022-11-29T07:46:26.363Z,-0.70
2022-11-29T07:47:34.096Z,-0.69
2022-11-29T07:48:37.434Z,-0.67
2022-11-29T07:49:39.254Z,-0.67
2022-11-29T07:50:41.554Z,-0.68
2022-11-29T07:51:43.578Z,-0.70
2022-11-29T07:52:45.762Z,-0.71
2022-11-29T07:53:47.946Z,-0.72
2022-11-29T07:54:49.755Z,-0.73
2022-11-29T07:55:51.763Z,-0.73
2022-11-29T07:56:53.675Z,-0.74
2022-11-29T07:57:56.124Z,-0.74
2022-11-29T07:58:57.942Z,-0.74
2022-11-29T07:59:59.715Z,-0.75
2022-11-29T08:01:02.295Z,-0.79
2022-11-29T08:02:10.170Z,-0.80
2022-11-29T08:03:14.677Z,-0.83
2022-11-29T08:04:16.472Z,-0.83
2022-11-29T08:05:19.105Z,-0.83
2022-11-29T08:06:25.969Z,-0.82
2022-11-29T08:07:28.592Z,-0.81
2022-11-29T08:08:30.380Z,-0.81
2022-11-29T08:09:32.143Z,-0.81
2022-11-29T08:10:35.686Z,-0.81
2022-11-29T08:11:39.051Z,-0.81
2022-11-29T08:12:47.410Z,-0.81
2022-11-29T08:13:49.181Z,-0.83
2022-11-29T08:14:50.935Z,-0.83
2022-11-29T08:15:52.691Z,-0.82
2022-11-29T08:16:54.485Z,-0.82
2022-11-29T08:17:56.415Z,-0.83
2022-11-29T08:18:58.193Z,-0.83
2022-11-29T08:20:04.105Z,-0.84
2022-11-29T08:21:07.644Z,-0.85
2022-11-29T08:22:09.530Z,-0.85
2022-11-29T08:23:13.722Z,-0.85
2022-11-29T08:24:15.518Z,-0.82
2022-11-29T08:25:17.325Z,-0.81
2022-11-29T08:26:20.903Z,-0.82
2022-11-29T08:27:22.673Z,-0.81
2022-11-29T08:28:24.465Z,-0.80
2022-11-29T08:29:26.292Z,-0.78
2022-11-29T08:30:28.054Z,-0.75
2022-11-29T08:31:29.903Z,-0.73
2022-11-29T08:32:31.889Z,-0.71
2022-11-29T08:33:42.456Z,-0.70
2022-11-29T08:34:44.627Z,-0.69
2022-11-29T08:35:46.668Z,-0.71
2022-11-29T08:36:49.478Z,-0.72
2022-11-29T08:37:51.943Z,-0.72
2022-11-29T08:39:02.275Z,-0.74
2022-11-29T08:40:08.680Z,-0.75
2022-11-29T08:41:13.781Z,-0.75
2022-11-29T08:42:15.557Z,-0.74
2022-11-29T08:43:17.578Z,-0.74
2022-11-29T08:44:19.405Z,-0.74
2022-11-29T08:45:21.315Z,-0.73
2022-11-29T08:46:43.129Z,-0.72
2022-11-29T08:47:44.904Z,-0.69
2022-11-29T08:48:47.715Z,-0.68
2022-11-29T08:50:08.167Z,-0.65
2022-11-29T08:51:11.490Z,-0.63
2022-11-29T08:52:31.995Z,-0.62
2022-11-29T08:53:43.354Z,-0.62
2022-11-29T08:54:45.511Z,-0.63
2022-11-29T08:55:47.574Z,-0.65
2022-11-29T08:57:23.602Z,-0.66
2022-11-29T08:58:14.770Z,-0.69
2022-11-29T08:59:16.532Z,-0.71
2022-11-29T09:00:21.359Z,-0.69
2022-11-29T09:01:23.774Z,-0.68
2022-11-29T09:02:25.811Z,-0.68
2022-11-29T09:03:46.541Z,-0.68
2022-11-29T09:04:48.308Z,-0.69
2022-11-29T09:05:50.734Z,-0.70
2022-11-29T09:06:52.598Z,-0.69
2022-11-29T09:07:54.428Z,-0.68
2022-11-29T09:08:58.001Z,-0.67
2022-11-29T09:10:05.031Z,-0.66
2022-11-29T09:11:08.757Z,-0.63
2022-11-29T09:12:10.519Z,-0.61
2022-11-29T09:13:12.840Z,-0.59
2022-11-29T09:14:17.289Z,-0.59
2022-11-29T09:15:19.171Z,-0.58
2022-11-29T09:16:25.539Z,-0.59
2022-11-29T09:17:27.632Z,-0.60
2022-11-29T09:18:29.474Z,-0.61
2022-11-29T09:19:31.271Z,-0.60
2022-11-29T09:20:33.948Z,-0.58
2022-11-29T09:21:38.317Z,-0.56
2022-11-29T09:22:40.107Z,-0.54
2022-11-29T09:23:45.761Z,-0.52
2022-11-29T09:24:47.714Z,-0.51
2022-11-29T09:25:49.817Z,-0.50
2022-11-29T09:26:51.595Z,-0.50
2022-11-29T09:27:53.713Z,-0.50
2022-11-29T09:28:58.115Z,-0.50
2022-11-29T09:29:59.850Z,-0.48
2022-11-29T09:31:16.328Z,-0.46
2022-11-29T09:32:18.114Z,-0.46
2022-11-29T09:33:19.925Z,-0.47
2022-11-29T09:34:21.768Z,-0.47
2022-11-29T09:35:23.705Z,-0.46
2022-11-29T09:36:28.822Z,-0.45
2022-11-29T09:37:31.163Z,-0.44
2022-11-29T09:38:34.217Z,-0.43
2022-11-29T09:39:36.056Z,-0.43
2022-11-29T09:40:52.919Z,-0.42
2022-11-29T09:42:27.333Z,-0.40
2022-11-29T09:44:01.833Z,-0.35
2022-11-29T09:45:10.920Z,-0.33
2022-11-29T09:46:22.302Z,-0.31
2022-11-29T09:47:38.456Z,-0.28
2022-11-29T09:49:03.679Z,-0.26
2022-11-29T09:50:16.755Z,-0.25
2022-11-29T09:51:44.061Z,-0.26
2022-11-29T09:52:51.935Z,-0.25
2022-11-29T09:54:19.862Z,-0.24
2022-11-29T09:55:30.623Z,-0.24
2022-11-29T09:56:42.167Z,-0.23
2022-11-29T09:57:45.394Z,-0.23
2022-11-29T09:59:00.411Z,-0.22
2022-11-29T10:00:14.121Z,-0.20
2022-11-29T10:01:26.759Z,-0.18
2022-11-29T10:02:47.595Z,-0.17
2022-11-29T10:03:54.519Z,-0.15
2022-11-29T10:05:15.172Z,-0.13
2022-11-29T10:06:28.251Z,-0.12
2022-11-29T10:07:29.935Z,-0.11
2022-11-29T10:08:34.513Z,-0.09
2022-11-29T10:09:45.631Z,-0.08
2022-11-29T10:10:50.980Z,-0.09
2022-11-29T10:12:06.580Z,-0.08
2022-11-29T10:13:34.411Z,-0.06
2022-11-29T10:14:48.814Z,-0.06
2022-11-29T10:15:55.820Z,-0.06
2022-11-29T10:17:34.942Z,-0.04
2022-11-29T10:18:59.241Z,-0.02
2022-11-29T10:20:17.743Z,0.00
2022-11-29T10:21:29.473Z,0.01
2022-11-29T10:22:45.397Z,0.01
2022-11-29T10:23:52.264Z,0.03
2022-11-29T10:25:00.948Z,0.04
2022-11-29T10:26:08.011Z,0.04
2022-11-29T10:27:19.559Z,0.03
2022-11-29T10:28:27.658Z,0.02
2022-11-29T10:29:29.442Z,0.03
2022-11-29T10:30:36.186Z,0.03
2022-11-29T10:31:44.183Z,0.05
2022-11-29T10:32:52.105Z,0.05
2022-11-29T10:33:56.178Z,0.06
2022-11-29T10:35:00.623Z,0.06
2022-11-29T10:36:18.362Z,0.06
2022-11-29T10:37:23.213Z,0.09
2022-11-29T10:38:32.530Z,0.09
2022-11-29T10:39:49.034Z,0.10
2022-11-29T10:41:09.582Z,0.12
2022-11-29T10:42:40.888Z,0.15
2022-11-29T10:43:43.211Z,0.16
2022-11-29T10:44:45.536Z,0.18
2022-11-29T10:45:55.952Z,0.18
2022-11-29T10:47:10.449Z,0.20
2022-11-29T10:48:28.528Z,0.23
2022-11-29T10:49:37.290Z,0.25
2022-11-29T10:50:44.241Z,0.27
2022-11-29T10:51:47.113Z,0.28
2022-11-29T10:52:48.858Z,0.28
2022-11-29T10:53:54.637Z,0.30
2022-11-29T10:54:59.570Z,0.29
2022-11-29T10:56:09.526Z,0.28
2022-11-29T10:57:18.551Z,0.26
2022-11-29T10:58:28.565Z,0.27
2022-11-29T10:59:32.932Z,0.27
2022-11-29T11:00:53.726Z,0.29
2022-11-29T11:01:56.527Z,0.29
2022-11-29T11:03:17.335Z,0.29
2022-11-29T11:04:28.948Z,0.27
2022-11-29T11:05:30.801Z,0.27
2022-11-29T11:06:46.253Z,0.28
2022-11-29T11:07:57.656Z,0.28
2022-11-29T11:09:21.274Z,0.29
2022-11-29T11:10:30.886Z,0.31
2022-11-29T11:11:33.683Z,0.34
2022-11-29T11:12:37.021Z,0.34
2022-11-29T11:13:41.173Z,0.34
2022-11-29T11:14:45.006Z,0.37
2022-11-29T11:15:47.170Z,0.38
2022-11-29T11:16:49.790Z,0.39
2022-11-29T11:17:57.899Z,0.40
2022-11-29T11:19:25.355Z,0.41
2022-11-29T11:20:32.754Z,0.44
2022-11-29T11:21:39.179Z,0.45
2022-11-29T11:22:41.213Z,0.45
2022-11-29T11:23:56.646Z,0.44
2022-11-29T11:25:03.324Z,0.42
2022-11-29T11:26:12.811Z,0.42
2022-11-29T11:27:30.064Z,0.41
2022-11-29T11:28:42.442Z,0.39
2022-11-29T11:29:45.751Z,0.40
2022-11-29T11:30:53.755Z,0.42
2022-11-29T11:31:59.069Z,0.46
2022-11-29T11:33:31.325Z,0.48
2022-11-29T11:34:38.335Z,0.52
2022-11-29T11:35:40.880Z,0.57
2022-11-29T11:36:42.649Z,0.58
2022-11-29T11:37:56.796Z,0.59
2022-11-29T11:39:19.360Z,0.59
2022-11-29T11:40:29.742Z,0.58
2022-11-29T11:42:02.719Z,0.58
2022-11-29T11:43:04.688Z,0.56
2022-11-29T11:44:47.481Z,0.54
2022-11-29T11:45:54.654Z,0.52
2022-11-29T11:46:57.136Z,0.52
2022-11-29T11:48:13.416Z,0.52
2022-11-29T11:49:49.964Z,0.53
2022-11-29T11:50:56.310Z,0.56
2022-11-29T11:52:01.012Z,0.59
2022-11-29T11:53:21.522Z,0.61
2022-11-29T11:54:23.523Z,0.65
2022-11-29T11:55:43.000Z,0.67
2022-11-29T11:56:44.812Z,0.71
2022-11-29T11:57:57.370Z,0.73
2022-11-29T11:58:59.334Z,0.76
2022-11-29T12:00:06.623Z,0.77
2022-11-29T12:01:13.213Z,0.78
2022-11-29T12:02:40.062Z,0.79
2022-11-29T12:04:01.922Z,0.81
2022-11-29T12:05:13.346Z,0.84
2022-11-29T12:06:32.284Z,0.85
2022-11-29T12:08:07.421Z,0.86
2022-11-29T12:09:36.687Z,0.89
2022-11-29T12:10:40.510Z,0.94
2022-11-29T12:11:48.078Z,0.95
2022-11-29T12:12:52.213Z,0.96
2022-11-29T12:13:59.777Z,0.94
2022-11-29T12:15:01.531Z,0.93
2022-11-29T12:16:33.487Z,0.92
2022-11-29T12:18:01.835Z,0.91
2022-11-29T12:19:21.955Z,0.91
2022-11-29T12:20:39.632Z,0.91
2022-11-29T12:21:47.350Z,0.91
2022-11-29T12:23:16.513Z,0.92
2022-11-29T12:24:42.729Z,0.93
2022-11-29T12:25:50.577Z,0.95
2022-11-29T12:26:58.948Z,0.96
2022-11-29T12:28:12.024Z,0.97
2022-11-29T12:29:19.121Z,0.98
2022-11-29T12:30:21.184Z,0.99
2022-11-29T12:31:39.992Z,0.99
2022-11-29T12:33:12.812Z,0.97
2022-11-29T12:34:43.429Z,0.95
2022-11-29T12:36:01.082Z,0.96
2022-11-29T12:37:30.121Z,0.96
2022-11-29T12:38:45.170Z,0.95
2022-11-29T12:40:09.382Z,0.96
2022-11-29T12:41:49.501Z,0.99
2022-11-29T12:43:13.027Z,1.00
2022-11-29T12:44:41.394Z,1.01
2022-11-29T12:46:06.243Z,1.03
2022-11-29T12:47:35.618Z,1.05
2022-11-29T12:49:00.827Z,1.05
2022-11-29T12:50:24.191Z,1.03
2022-11-29T12:51:46.624Z,1.03
2022-11-29T12:53:10.563Z,1.04
2022-11-29T12:54:40.285Z,1.05
2022-11-29T12:56:13.632Z,1.05
2022-11-29T12:57:24.517Z,1.05
2022-11-29T12:58:57.460Z,1.05
2022-11-29T13:00:05.299Z,1.07
2022-11-29T13:01:56.999Z,1.09
2022-11-29T13:03:13.893Z,1.06
2022-11-29T13:04:59.786Z,1.05
2022-11-29T13:06:36.423Z,1.04
2022-11-29T13:08:00.374Z,1.05
2022-11-29T13:09:37.155Z,1.06
2022-11-29T13:11:08.832Z,1.06
2022-11-29T13:12:33.114Z,1.03
2022-11-29T13:13:39.935Z,1.03
2022-11-29T13:14:53.878Z,1.05
2022-11-29T13:16:24.002Z,1.07
2022-11-29T13:17:37.649Z,1.09
2022-11-29T13:18:58.982Z,1.09
2022-11-29T13:20:26.913Z,1.10
2022-11-29T13:21:45.791Z,1.11
2022-11-29T13:23:12.449Z,1.11
2022-11-29T13:24:28.619Z,1.07
2022-11-29T13:25:44.739Z,1.10
2022-11-29T13:26:47.756Z,1.09
2022-11-29T13:28:07.743Z,1.08
2022-11-29T13:29:18.164Z,1.05
2022-11-29T13:30:20.146Z,1.03
2022-11-29T13:31:24.921Z,1.01
2022-11-29T13:32:50.403Z,0.99
2022-11-29T13:34:08.038Z,0.97
2022-11-29T13:35:30.391Z,0.95
2022-11-29T13:36:49.777Z,0.94
2022-11-29T13:38:00.164Z,0.94
2022-11-29T13:39:27.133Z,0.92
2022-11-29T13:40:54.842Z,0.89
2022-11-29T13:42:24.142Z,0.85
2022-11-29T13:43:44.615Z,0.82
2022-11-29T13:44:55.638Z,0.81
2022-11-29T13:46:19.015Z,0.81
2022-11-29T13:47:21.534Z,0.81
2022-11-29T13:48:29.036Z,0.80
2022-11-29T13:49:49.092Z,0.79
2022-11-29T13:50:50.944Z,0.78
2022-11-29T13:52:05.962Z,0.77
2022-11-29T13:53:19.220Z,0.76
2022-11-29T13:54:31.589Z,0.76
2022-11-29T13:55:34.220Z,0.76
2022-11-29T13:56:46.362Z,0.77
2022-11-29T13:59:29.559Z,0.80
2022-11-29T14:00:36.328Z,0.80
2022-11-29T14:01:51.021Z,0.80
2022-11-29T14:02:55.381Z,0.80
2022-11-29T14:04:21.729Z,0.78
2022-11-29T14:05:29.088Z,0.74
2022-11-29T14:06:37.402Z,0.72
2022-11-29T14:09:10.312Z,0.71
2022-11-29T14:10:05.829Z,0.70
2022-11-29T14:11:37.209Z,0.70
2022-11-29T14:12:49.679Z,0.69
2022-11-29T14:14:01.383Z,0.70
2022-11-29T14:15:18.316Z,0.70
2022-11-29T14:16:45.134Z,0.69
2022-11-29T14:17:57.286Z,0.67
2022-11-29T14:19:10.939Z,0.66
2022-11-29T14:20:30.503Z,0.64
2022-11-29T14:22:03.007Z,0.63
2022-11-29T14:23:04.796Z,0.62
2022-11-29T14:24:37.339Z,0.59
2022-11-29T14:26:02.004Z,0.56
2022-11-29T14:27:06.881Z,0.56
2022-11-29T14:28:14.752Z,0.56
2022-11-29T14:29:47.368Z,0.54
2022-11-29T14:30:52.233Z,0.53
2022-11-29T14:31:55.500Z,0.53
2022-11-29T14:33:17.621Z,0.52
2022-11-29T14:34:31.019Z,0.53
2022-11-29T14:35:43.566Z,0.53
2022-11-29T14:37:04.336Z,0.53
2022-11-29T14:38:31.184Z,0.52
2022-11-29T14:39:47.933Z,0.51
2022-11-29T14:41:03.374Z,0.50
2022-11-29T14:42:19.114Z,0.48
2022-11-29T14:43:29.360Z,0.48
2022-11-29T14:44:33.455Z,0.47
2022-11-29T14:45:35.483Z,0.48
2022-11-29T14:46:37.448Z,0.49
2022-11-29T14:47:49.113Z,0.48
2022-11-29T14:48:56.828Z,0.47
2022-11-29T14:50:04.020Z,0.47
2022-11-29T14:51:16.160Z,0.47
2022-11-29T14:52:51.349Z,0.45
2022-11-29T14:54:05.446Z,0.43
2022-11-29T14:55:29.961Z,0.42
2022-11-29T14:56:31.827Z,0.41
2022-11-29T14:57:54.548Z,0.39
2022-11-29T14:59:33.761Z,0.38
2022-11-29T15:00:42.280Z,0.38
2022-11-29T15:02:04.872Z,0.40
2022-11-29T15:03:15.966Z,0.39
2022-11-29T15:04:18.332Z,0.37
2022-11-29T15:05:34.539Z,0.36
2022-11-29T15:06:44.096Z,0.34
2022-11-29T15:07:57.686Z,0.35
2022-11-29T15:09:21.095Z,0.36
2022-11-29T15:10:29.776Z,0.37
2022-11-29T15:11:47.151Z,0.36
2022-11-29T15:12:50.745Z,0.38
2022-11-29T15:14:04.692Z,0.39
2022-11-29T15:15:34.080Z,0.42
2022-11-29T15:16:35.906Z,0.43
2022-11-29T15:18:15.439Z,0.42
2022-11-29T15:19:29.414Z,0.41
2022-11-29T15:20:41.293Z,0.39
2022-11-29T15:22:08.227Z,0.37
2022-11-29T15:23:17.774Z,0.35
2022-11-29T15:24:20.599Z,0.35
2022-11-29T15:25:30.909Z,0.34
2022-11-29T15:26:32.757Z,0.33
2022-11-29T15:27:39.893Z,0.32
2022-11-29T15:28:42.304Z,0.32
2022-11-29T15:29:48.179Z,0.31
2022-11-29T15:31:02.267Z,0.30
2022-11-29T15:32:06.270Z,0.31
2022-11-29T15:33:21.464Z,0.31
2022-11-29T15:34:45.289Z,0.31
2022-11-29T15:35:56.515Z,0.30
2022-11-29T15:37:00.040Z,0.29
2022-11-29T15:38:02.630Z,0.28
2022-11-29T15:39:04.520Z,0.28
2022-11-29T15:40:22.123Z,0.28
2022-11-29T15:41:35.689Z,0.29
2022-11-29T15:42:53.298Z,0.29
2022-11-29T15:44:03.770Z,0.29
2022-11-29T15:45:27.322Z,0.31
2022-11-29T15:46:35.379Z,0.31
2022-11-29T15:47:37.284Z,0.32
2022-11-29T15:48:39.124Z,0.31
2022-11-29T15:49:41.015Z,0.29
2022-11-29T15:51:16.016Z,0.28
2022-11-29T15:52:38.721Z,0.27
2022-11-29T15:53:47.770Z,0.26
2022-11-29T15:54:55.931Z,0.25
2022-11-29T15:56:02.273Z,0.24
2022-11-29T15:57:16.306Z,0.23
2022-11-29T15:58:20.205Z,0.22
2022-11-29T15:59:54.005Z,0.22
2022-11-29T16:00:59.521Z,0.23